sensor_id;sensor_type;location;lat;lon;timestamp;P1;durP1;ratioP1;P2;durP2;ratioP2
65323;SDS011;51937;48.364;11.378;2022-09-01T00:01:34;7.97;;;5.40;;
65323;SDS011;51937;48.364;11.378;2022-09-01T00:04:05;5.95;;;4.97;;
65323;SDS011;51937;48.364;11.378;2022-09-01T00:06:32;7.07;;;5.32;;
65323;SDS011;51937;48.364;11.378;2022-09-01T00:08:59;6.13;;;4.50;;
65323;SDS011;51937;48.364;11.378;2022-09-01T00:11:29;7.47;;;5.82;;
65323;SDS011;51937;48.364;11.378;2022-09-01T00:13:55;6.93;;;5.03;;
65323;SDS011;51937;48.364;11.378;2022-09-01T00:16:21;8.13;;;5.70;;
65323;SDS011;51937;48.364;11.378;2022-09-01T00:18:48;7.57;;;5.25;;
65323;SDS011;51937;48.364;11.378;2022-09-01T00:21:18;7.55;;;6.00;;
65323;SDS011;51937;48.364;11.378;2022-09-01T00:23:49;7.90;;;5.72;;
65323;SDS011;51937;48.364;11.378;2022-09-01T00:26:15;7.28;;;5.28;;
65323;SDS011;51937;48.364;11.378;2022-09-01T00:28:40;8.63;;;6.70;;
65323;SDS011;51937;48.364;11.378;2022-09-01T00:31:06;6.03;;;4.88;;
65323;SDS011;51937;48.364;11.378;2022-09-01T00:33:33;7.07;;;5.15;;
65323;SDS011;51937;48.364;11.378;2022-09-01T00:35:59;7.30;;;5.82;;
65323;SDS011;51937;48.364;11.378;2022-09-01T00:38:26;8.90;;;6.10;;
65323;SDS011;51937;48.364;11.378;2022-09-01T00:40:51;5.78;;;4.70;;
65323;SDS011;51937;48.364;11.378;2022-09-01T00:43:38;6.53;;;5.38;;
65323;SDS011;51937;48.364;11.378;2022-09-01T00:46:06;8.48;;;5.75;;
65323;SDS011;51937;48.364;11.378;2022-09-01T00:48:34;6.55;;;5.32;;
65323;SDS011;51937;48.364;11.378;2022-09-01T00:50:59;8.40;;;5.47;;
65323;SDS011;51937;48.364;11.378;2022-09-01T00:53:25;8.95;;;5.57;;
65323;SDS011;51937;48.364;11.378;2022-09-01T00:55:51;5.43;;;4.65;;
65323;SDS011;51937;48.364;11.378;2022-09-01T00:58:17;5.70;;;4.70;;
65323;SDS011;51937;48.364;11.378;2022-09-01T01:00:42;5.35;;;4.47;;
65323;SDS011;51937;48.364;11.378;2022-09-01T01:03:11;6.35;;;4.93;;
65323;SDS011;51937;48.364;11.378;2022-09-01T01:05:39;5.93;;;4.80;;
65323;SDS011;51937;48.364;11.378;2022-09-01T01:08:09;8.13;;;5.72;;
65323;SDS011;51937;48.364;11.378;2022-09-01T01:10:37;6.57;;;5.38;;
65323;SDS011;51937;48.364;11.378;2022-09-01T01:13:06;6.05;;;4.32;;
65323;SDS011;51937;48.364;11.378;2022-09-01T01:15:33;7.60;;;5.18;;
65323;SDS011;51937;48.364;11.378;2022-09-01T01:17:59;7.22;;;5.40;;
65323;SDS011;51937;48.364;11.378;2022-09-01T01:20:25;6.68;;;4.22;;
65323;SDS011;51937;48.364;11.378;2022-09-01T01:25:51;7.38;;;5.38;;
65323;SDS011;51937;48.364;11.378;2022-09-01T01:28:20;8.63;;;5.80;;
65323;SDS011;51937;48.364;11.378;2022-09-01T01:33:42;7.55;;;4.50;;
65323;SDS011;51937;48.364;11.378;2022-09-01T01:36:29;9.02;;;5.55;;
65323;SDS011;51937;48.364;11.378;2022-09-01T01:39:01;6.18;;;4.88;;
65323;SDS011;51937;48.364;11.378;2022-09-01T01:41:33;7.07;;;5.20;;
65323;SDS011;51937;48.364;11.378;2022-09-01T01:44:01;8.15;;;5.25;;
65323;SDS011;51937;48.364;11.378;2022-09-01T01:46:28;6.15;;;4.72;;
65323;SDS011;51937;48.364;11.378;2022-09-01T01:48:54;9.50;;;5.53;;
65323;SDS011;51937;48.364;11.378;2022-09-01T01:51:21;7.10;;;5.55;;
65323;SDS011;51937;48.364;11.378;2022-09-01T01:53:50;6.80;;;5.72;;
65323;SDS011;51937;48.364;11.378;2022-09-01T01:56:17;7.07;;;5.22;;
65323;SDS011;51937;48.364;11.378;2022-09-01T01:58:43;7.07;;;5.05;;
65323;SDS011;51937;48.364;11.378;2022-09-01T02:01:09;7.55;;;5.10;;
65323;SDS011;51937;48.364;11.378;2022-09-01T02:03:36;9.70;;;5.82;;
65323;SDS011;51937;48.364;11.378;2022-09-01T02:06:03;6.50;;;5.05;;
65323;SDS011;51937;48.364;11.378;2022-09-01T02:08:34;6.75;;;4.90;;
65323;SDS011;51937;48.364;11.378;2022-09-01T02:11:01;7.88;;;4.97;;
65323;SDS011;51937;48.364;11.378;2022-09-01T02:13:27;6.03;;;4.93;;
65323;SDS011;51937;48.364;11.378;2022-09-01T02:16:00;5.45;;;4.60;;
65323;SDS011;51937;48.364;11.378;2022-09-01T02:18:30;6.63;;;5.35;;
65323;SDS011;51937;48.364;11.378;2022-09-01T02:21:02;7.00;;;5.03;;
65323;SDS011;51937;48.364;11.378;2022-09-01T02:23:33;7.85;;;5.35;;
65323;SDS011;51937;48.364;11.378;2022-09-01T02:26:00;7.47;;;5.63;;
65323;SDS011;51937;48.364;11.378;2022-09-01T02:28:26;7.75;;;5.10;;
65323;SDS011;51937;48.364;11.378;2022-09-01T02:30:52;7.53;;;5.18;;
65323;SDS011;51937;48.364;11.378;2022-09-01T02:33:19;7.18;;;5.57;;
65323;SDS011;51937;48.364;11.378;2022-09-01T02:35:46;7.30;;;5.47;;
65323;SDS011;51937;48.364;11.378;2022-09-01T02:38:14;8.82;;;5.82;;
65323;SDS011;51937;48.364;11.378;2022-09-01T02:40:42;7.93;;;5.57;;
65323;SDS011;51937;48.364;11.378;2022-09-01T02:43:11;8.73;;;5.90;;
65323;SDS011;51937;48.364;11.378;2022-09-01T02:45:38;8.57;;;6.10;;
65323;SDS011;51937;48.364;11.378;2022-09-01T02:48:04;7.72;;;6.03;;
65323;SDS011;51937;48.364;11.378;2022-09-01T02:50:35;10.50;;;6.00;;
65323;SDS011;51937;48.364;11.378;2022-09-01T02:53:01;7.18;;;5.25;;
65323;SDS011;51937;48.364;11.378;2022-09-01T02:55:30;7.03;;;4.60;;
65323;SDS011;51937;48.364;11.378;2022-09-01T02:57:56;8.35;;;5.68;;
65323;SDS011;51937;48.364;11.378;2022-09-01T03:00:22;8.85;;;5.97;;
65323;SDS011;51937;48.364;11.378;2022-09-01T03:02:55;7.80;;;5.80;;
65323;SDS011;51937;48.364;11.378;2022-09-01T03:05:24;7.78;;;5.70;;
65323;SDS011;51937;48.364;11.378;2022-09-01T03:08:01;6.50;;;5.35;;
65323;SDS011;51937;48.364;11.378;2022-09-01T03:10:31;7.25;;;5.40;;
65323;SDS011;51937;48.364;11.378;2022-09-01T03:13:03;5.63;;;4.07;;
65323;SDS011;51937;48.364;11.378;2022-09-01T03:15:31;6.05;;;4.80;;
65323;SDS011;51937;48.364;11.378;2022-09-01T03:17:58;10.23;;;6.35;;
65323;SDS011;51937;48.364;11.378;2022-09-01T03:20:24;7.40;;;6.05;;
65323;SDS011;51937;48.364;11.378;2022-09-01T03:22:51;8.10;;;6.07;;
65323;SDS011;51937;48.364;11.378;2022-09-01T03:25:16;9.93;;;6.13;;
65323;SDS011;51937;48.364;11.378;2022-09-01T03:27:43;6.47;;;4.93;;
65323;SDS011;51937;48.364;11.378;2022-09-01T03:30:08;6.72;;;5.60;;
65323;SDS011;51937;48.364;11.378;2022-09-01T03:32:35;8.07;;;5.63;;
65323;SDS011;51937;48.364;11.378;2022-09-01T03:35:00;7.78;;;5.55;;
65323;SDS011;51937;48.364;11.378;2022-09-01T03:37:26;7.50;;;5.20;;
65323;SDS011;51937;48.364;11.378;2022-09-01T03:39:51;7.78;;;4.88;;
65323;SDS011;51937;48.364;11.378;2022-09-01T03:42:16;8.10;;;5.78;;
65323;SDS011;51937;48.364;11.378;2022-09-01T03:44:49;8.27;;;5.55;;
65323;SDS011;51937;48.364;11.378;2022-09-01T03:47:16;8.38;;;6.60;;
65323;SDS011;51937;48.364;11.378;2022-09-01T03:49:42;10.07;;;6.82;;
65323;SDS011;51937;48.364;11.378;2022-09-01T03:52:08;8.25;;;6.07;;
65323;SDS011;51937;48.364;11.378;2022-09-01T03:54:34;7.88;;;6.15;;
65323;SDS011;51937;48.364;11.378;2022-09-01T03:57:00;10.68;;;6.30;;
65323;SDS011;51937;48.364;11.378;2022-09-01T03:59:25;9.25;;;6.68;;
65323;SDS011;51937;48.364;11.378;2022-09-01T04:01:52;8.73;;;5.93;;
65323;SDS011;51937;48.364;11.378;2022-09-01T04:04:17;8.20;;;6.60;;
65323;SDS011;51937;48.364;11.378;2022-09-01T04:06:43;8.00;;;5.50;;
65323;SDS011;51937;48.364;11.378;2022-09-01T04:09:09;8.35;;;6.05;;
65323;SDS011;51937;48.364;11.378;2022-09-01T04:11:36;7.35;;;5.50;;
65323;SDS011;51937;48.364;11.378;2022-09-01T04:14:03;7.43;;;5.90;;
65323;SDS011;51937;48.364;11.378;2022-09-01T04:16:31;6.65;;;5.40;;
65323;SDS011;51937;48.364;11.378;2022-09-01T04:19:20;7.90;;;5.65;;
65323;SDS011;51937;48.364;11.378;2022-09-01T04:21:51;8.23;;;5.88;;
65323;SDS011;51937;48.364;11.378;2022-09-01T04:24:19;6.82;;;5.15;;
65323;SDS011;51937;48.364;11.378;2022-09-01T04:26:47;6.28;;;5.10;;
65323;SDS011;51937;48.364;11.378;2022-09-01T04:29:13;7.22;;;5.45;;
65323;SDS011;51937;48.364;11.378;2022-09-01T04:31:42;7.85;;;6.07;;
65323;SDS011;51937;48.364;11.378;2022-09-01T04:34:08;7.05;;;5.47;;
65323;SDS011;51937;48.364;11.378;2022-09-01T04:36:38;7.28;;;5.53;;
65323;SDS011;51937;48.364;11.378;2022-09-01T04:39:06;7.18;;;4.80;;
65323;SDS011;51937;48.364;11.378;2022-09-01T04:41:36;8.65;;;6.07;;
65323;SDS011;51937;48.364;11.378;2022-09-01T04:44:04;8.48;;;5.68;;
65323;SDS011;51937;48.364;11.378;2022-09-01T04:46:33;10.70;;;6.72;;
65323;SDS011;51937;48.364;11.378;2022-09-01T04:49:04;8.40;;;6.10;;
65323;SDS011;51937;48.364;11.378;2022-09-01T04:51:38;9.50;;;5.95;;
65323;SDS011;51937;48.364;11.378;2022-09-01T04:54:04;7.78;;;5.95;;
65323;SDS011;51937;48.364;11.378;2022-09-01T04:56:33;9.45;;;6.75;;
65323;SDS011;51937;48.364;11.378;2022-09-01T04:58:59;8.23;;;5.28;;
65323;SDS011;51937;48.364;11.378;2022-09-01T05:01:26;6.45;;;4.80;;
65323;SDS011;51937;48.364;11.378;2022-09-01T05:03:51;8.38;;;5.72;;
65323;SDS011;51937;48.364;11.378;2022-09-01T05:06:26;6.10;;;4.70;;
65323;SDS011;51937;48.364;11.378;2022-09-01T05:08:52;8.02;;;6.00;;
65323;SDS011;51937;48.364;11.378;2022-09-01T05:11:21;9.85;;;6.60;;
65323;SDS011;51937;48.364;11.378;2022-09-01T05:13:48;7.97;;;5.13;;
65323;SDS011;51937;48.364;11.378;2022-09-01T05:16:15;8.02;;;5.72;;
65323;SDS011;51937;48.364;11.378;2022-09-01T05:18:44;7.53;;;5.70;;
65323;SDS011;51937;48.364;11.378;2022-09-01T05:21:11;9.55;;;5.78;;
65323;SDS011;51937;48.364;11.378;2022-09-01T05:23:40;8.43;;;5.80;;
65323;SDS011;51937;48.364;11.378;2022-09-01T05:26:13;11.85;;;6.35;;
65323;SDS011;51937;48.364;11.378;2022-09-01T05:28:44;8.27;;;6.05;;
65323;SDS011;51937;48.364;11.378;2022-09-01T05:31:14;7.38;;;5.80;;
65323;SDS011;51937;48.364;11.378;2022-09-01T05:33:43;11.10;;;6.05;;
65323;SDS011;51937;48.364;11.378;2022-09-01T05:36:12;7.28;;;5.82;;
65323;SDS011;51937;48.364;11.378;2022-09-01T05:38:40;7.63;;;5.75;;
65323;SDS011;51937;48.364;11.378;2022-09-01T05:41:07;9.18;;;6.63;;
65323;SDS011;51937;48.364;11.378;2022-09-01T05:43:35;7.20;;;5.50;;
65323;SDS011;51937;48.364;11.378;2022-09-01T05:46:01;13.45;;;5.55;;
65323;SDS011;51937;48.364;11.378;2022-09-01T05:48:31;8.07;;;5.45;;
65323;SDS011;51937;48.364;11.378;2022-09-01T05:50:58;6.75;;;4.90;;
65323;SDS011;51937;48.364;11.378;2022-09-01T05:53:27;9.75;;;6.22;;
65323;SDS011;51937;48.364;11.378;2022-09-01T05:55:54;7.60;;;5.25;;
65323;SDS011;51937;48.364;11.378;2022-09-01T05:58:21;7.32;;;5.22;;
65323;SDS011;51937;48.364;11.378;2022-09-01T06:00:50;6.85;;;5.25;;
65323;SDS011;51937;48.364;11.378;2022-09-01T06:03:18;7.80;;;5.72;;
65323;SDS011;51937;48.364;11.378;2022-09-01T06:05:44;6.07;;;4.57;;
65323;SDS011;51937;48.364;11.378;2022-09-01T06:08:12;6.95;;;5.32;;
65323;SDS011;51937;48.364;11.378;2022-09-01T06:10:40;10.75;;;5.40;;
65323;SDS011;51937;48.364;11.378;2022-09-01T06:13:09;6.60;;;4.80;;
65323;SDS011;51937;48.364;11.378;2022-09-01T06:15:35;6.80;;;4.88;;
65323;SDS011;51937;48.364;11.378;2022-09-01T06:18:06;6.03;;;4.95;;
65323;SDS011;51937;48.364;11.378;2022-09-01T06:20:33;6.22;;;4.75;;
65323;SDS011;51937;48.364;11.378;2022-09-01T06:22:58;8.13;;;5.25;;
65323;SDS011;51937;48.364;11.378;2022-09-01T06:25:24;7.15;;;5.18;;
65323;SDS011;51937;48.364;11.378;2022-09-01T06:27:54;7.10;;;5.40;;
65323;SDS011;51937;48.364;11.378;2022-09-01T06:30:20;7.93;;;5.22;;
65323;SDS011;51937;48.364;11.378;2022-09-01T06:32:50;5.75;;;4.18;;
65323;SDS011;51937;48.364;11.378;2022-09-01T06:35:17;5.57;;;4.93;;
65323;SDS011;51937;48.364;11.378;2022-09-01T06:37:42;6.32;;;4.85;;
65323;SDS011;51937;48.364;11.378;2022-09-01T06:40:10;5.32;;;4.65;;
65323;SDS011;51937;48.364;11.378;2022-09-01T06:42:45;6.15;;;4.70;;
65323;SDS011;51937;48.364;11.378;2022-09-01T06:45:15;6.55;;;5.07;;
65323;SDS011;51937;48.364;11.378;2022-09-01T06:47:43;6.22;;;4.68;;
65323;SDS011;51937;48.364;11.378;2022-09-01T06:50:10;7.53;;;5.13;;
65323;SDS011;51937;48.364;11.378;2022-09-01T06:52:39;7.32;;;5.18;;
65323;SDS011;51937;48.364;11.378;2022-09-01T06:55:08;8.77;;;5.15;;
65323;SDS011;51937;48.364;11.378;2022-09-01T06:57:38;8.30;;;5.30;;
65323;SDS011;51937;48.364;11.378;2022-09-01T07:00:06;6.03;;;4.78;;
65323;SDS011;51937;48.364;11.378;2022-09-01T07:02:39;5.63;;;4.65;;
65323;SDS011;51937;48.364;11.378;2022-09-01T07:05:07;5.88;;;4.45;;
65323;SDS011;51937;48.364;11.378;2022-09-01T07:07:32;6.40;;;4.53;;
65323;SDS011;51937;48.364;11.378;2022-09-01T07:09:58;5.55;;;4.55;;
65323;SDS011;51937;48.364;11.378;2022-09-01T07:12:23;4.88;;;4.07;;
65323;SDS011;51937;48.364;11.378;2022-09-01T07:14:49;6.45;;;4.45;;
65323;SDS011;51937;48.364;11.378;2022-09-01T07:17:14;5.60;;;4.35;;
65323;SDS011;51937;48.364;11.378;2022-09-01T07:19:40;6.35;;;4.53;;
65323;SDS011;51937;48.364;11.378;2022-09-01T07:22:05;6.35;;;5.00;;
65323;SDS011;51937;48.364;11.378;2022-09-01T07:24:30;5.57;;;4.20;;
65323;SDS011;51937;48.364;11.378;2022-09-01T07:26:57;4.40;;;3.90;;
65323;SDS011;51937;48.364;11.378;2022-09-01T07:29:22;4.13;;;3.70;;
65323;SDS011;51937;48.364;11.378;2022-09-01T07:31:50;6.00;;;4.65;;
65323;SDS011;51937;48.364;11.378;2022-09-01T07:34:19;5.22;;;3.80;;
65323;SDS011;51937;48.364;11.378;2022-09-01T07:36:45;5.28;;;3.88;;
65323;SDS011;51937;48.364;11.378;2022-09-01T07:39:11;6.60;;;4.15;;
65323;SDS011;51937;48.364;11.378;2022-09-01T07:41:38;5.60;;;3.88;;
65323;SDS011;51937;48.364;11.378;2022-09-01T07:44:05;6.63;;;4.13;;
65323;SDS011;51937;48.364;11.378;2022-09-01T07:46:34;5.25;;;3.83;;
65323;SDS011;51937;48.364;11.378;2022-09-01T07:49:00;5.20;;;4.03;;
65323;SDS011;51937;48.364;11.378;2022-09-01T07:51:26;3.85;;;3.45;;
65323;SDS011;51937;48.364;11.378;2022-09-01T07:53:54;5.55;;;3.58;;
65323;SDS011;51937;48.364;11.378;2022-09-01T07:56:20;4.30;;;3.10;;
65323;SDS011;51937;48.364;11.378;2022-09-01T07:58:48;4.20;;;3.30;;
65323;SDS011;51937;48.364;11.378;2022-09-01T08:01:15;4.28;;;3.40;;
65323;SDS011;51937;48.364;11.378;2022-09-01T08:03:43;7.30;;;3.63;;
65323;SDS011;51937;48.364;11.378;2022-09-01T08:06:14;3.75;;;3.20;;
65323;SDS011;51937;48.364;11.378;2022-09-01T08:08:44;4.78;;;3.50;;
65323;SDS011;51937;48.364;11.378;2022-09-01T08:11:19;4.00;;;3.00;;
65323;SDS011;51937;48.364;11.378;2022-09-01T08:13:49;4.43;;;3.10;;
65323;SDS011;51937;48.364;11.378;2022-09-01T08:16:15;4.00;;;3.10;;
65323;SDS011;51937;48.364;11.378;2022-09-01T08:18:41;2.58;;;2.38;;
65323;SDS011;51937;48.364;11.378;2022-09-01T08:21:08;5.90;;;3.33;;
65323;SDS011;51937;48.364;11.378;2022-09-01T08:23:35;4.35;;;3.17;;
65323;SDS011;51937;48.364;11.378;2022-09-01T08:26:05;5.65;;;3.05;;
65323;SDS011;51937;48.364;11.378;2022-09-01T08:28:35;3.67;;;3.28;;
65323;SDS011;51937;48.364;11.378;2022-09-01T08:31:11;5.95;;;3.40;;
65323;SDS011;51937;48.364;11.378;2022-09-01T08:33:38;4.18;;;2.83;;
65323;SDS011;51937;48.364;11.378;2022-09-01T08:36:06;3.83;;;3.13;;
65323;SDS011;51937;48.364;11.378;2022-09-01T08:38:33;5.88;;;3.22;;
65323;SDS011;51937;48.364;11.378;2022-09-01T08:40:58;3.35;;;3.05;;
65323;SDS011;51937;48.364;11.378;2022-09-01T08:46:26;6.20;;;3.53;;
65323;SDS011;51937;48.364;11.378;2022-09-01T08:48:59;5.43;;;3.33;;
65323;SDS011;51937;48.364;11.378;2022-09-01T08:51:34;3.78;;;3.35;;
65323;SDS011;51937;48.364;11.378;2022-09-01T08:54:11;3.40;;;2.85;;
65323;SDS011;51937;48.364;11.378;2022-09-01T08:56:37;3.60;;;2.75;;
65323;SDS011;51937;48.364;11.378;2022-09-01T08:59:05;4.25;;;3.45;;
65323;SDS011;51937;48.364;11.378;2022-09-01T09:01:44;4.82;;;3.10;;
65323;SDS011;51937;48.364;11.378;2022-09-01T09:04:42;4.20;;;3.05;;
65323;SDS011;51937;48.364;11.378;2022-09-01T09:07:13;4.60;;;2.72;;
65323;SDS011;51937;48.364;11.378;2022-09-01T09:09:51;2.97;;;2.67;;
65323;SDS011;51937;48.364;11.378;2022-09-01T09:17:48;3.85;;;2.83;;
65323;SDS011;51937;48.364;11.378;2022-09-01T09:20:23;5.05;;;2.92;;
65323;SDS011;51937;48.364;11.378;2022-09-01T09:22:50;5.63;;;3.30;;
65323;SDS011;51937;48.364;11.378;2022-09-01T09:25:17;3.38;;;3.08;;
65323;SDS011;51937;48.364;11.378;2022-09-01T09:27:43;2.92;;;2.60;;
65323;SDS011;51937;48.364;11.378;2022-09-01T09:30:21;3.50;;;2.70;;
65323;SDS011;51937;48.364;11.378;2022-09-01T09:37:50;2.80;;;2.42;;
65323;SDS011;51937;48.364;11.378;2022-09-01T09:40:20;7.38;;;2.90;;
65323;SDS011;51937;48.364;11.378;2022-09-01T09:45:25;3.42;;;2.60;;
65323;SDS011;51937;48.364;11.378;2022-09-01T09:48:08;4.10;;;2.33;;
65323;SDS011;51937;48.364;11.378;2022-09-01T09:50:49;2.15;;;1.90;;
65323;SDS011;51937;48.364;11.378;2022-09-01T09:53:28;4.10;;;2.75;;
65323;SDS011;51937;48.364;11.378;2022-09-01T09:56:16;3.13;;;2.35;;
65323;SDS011;51937;48.364;11.378;2022-09-01T09:58:44;3.10;;;2.25;;
65323;SDS011;51937;48.364;11.378;2022-09-01T10:06:33;6.40;;;2.10;;
65323;SDS011;51937;48.364;11.378;2022-09-01T10:09:04;2.58;;;2.03;;
65323;SDS011;51937;48.364;11.378;2022-09-01T10:11:36;3.17;;;1.98;;
65323;SDS011;51937;48.364;11.378;2022-09-01T10:14:26;3.38;;;2.55;;
65323;SDS011;51937;48.364;11.378;2022-09-01T10:16:56;4.47;;;2.33;;
65323;SDS011;51937;48.364;11.378;2022-09-01T10:19:27;3.00;;;2.30;;
65323;SDS011;51937;48.364;11.378;2022-09-01T10:21:54;2.72;;;2.00;;
65323;SDS011;51937;48.364;11.378;2022-09-01T10:24:28;2.10;;;1.75;;
65323;SDS011;51937;48.364;11.378;2022-09-01T10:27:02;2.20;;;2.00;;
65323;SDS011;51937;48.364;11.378;2022-09-01T10:32:00;2.42;;;1.92;;
65323;SDS011;51937;48.364;11.378;2022-09-01T10:34:27;4.22;;;1.58;;
65323;SDS011;51937;48.364;11.378;2022-09-01T10:36:57;4.28;;;2.03;;
65323;SDS011;51937;48.364;11.378;2022-09-01T10:39:24;1.88;;;1.63;;
65323;SDS011;51937;48.364;11.378;2022-09-01T10:41:50;1.95;;;1.77;;
65323;SDS011;51937;48.364;11.378;2022-09-01T10:44:22;2.13;;;1.58;;
65323;SDS011;51937;48.364;11.378;2022-09-01T10:46:51;4.03;;;1.98;;
65323;SDS011;51937;48.364;11.378;2022-09-01T10:49:18;2.50;;;1.77;;
65323;SDS011;51937;48.364;11.378;2022-09-01T10:51:44;4.63;;;2.28;;
65323;SDS011;51937;48.364;11.378;2022-09-01T10:54:47;4.15;;;2.10;;
65323;SDS011;51937;48.364;11.378;2022-09-01T10:57:29;2.03;;;1.67;;
65323;SDS011;51937;48.364;11.378;2022-09-01T11:08:22;1.70;;;1.60;;
65323;SDS011;51937;48.364;11.378;2022-09-01T11:13:46;1.83;;;1.50;;
65323;SDS011;51937;48.364;11.378;2022-09-01T11:16:27;2.22;;;1.25;;
65323;SDS011;51937;48.364;11.378;2022-09-01T11:27:03;1.45;;;1.30;;
65323;SDS011;51937;48.364;11.378;2022-09-01T11:32:25;1.10;;;1.00;;
65323;SDS011;51937;48.364;11.378;2022-09-01T11:34:56;0.90;;;0.90;;
65323;SDS011;51937;48.364;11.378;2022-09-01T11:37:26;2.20;;;1.15;;
65323;SDS011;51937;48.364;11.378;2022-09-01T11:39:53;2.25;;;1.30;;
65323;SDS011;51937;48.364;11.378;2022-09-01T11:47:31;1.00;;;0.90;;
65323;SDS011;51937;48.364;11.378;2022-09-01T11:50:04;1.80;;;1.00;;
65323;SDS011;51937;48.364;11.378;2022-09-01T11:52:35;1.42;;;0.98;;
65323;SDS011;51937;48.364;11.378;2022-09-01T11:55:05;4.28;;;1.30;;
65323;SDS011;51937;48.364;11.378;2022-09-01T12:00:13;1.63;;;1.15;;
65323;SDS011;51937;48.364;11.378;2022-09-01T12:02:51;1.27;;;1.00;;
65323;SDS011;51937;48.364;11.378;2022-09-01T12:05:29;1.10;;;0.95;;
65323;SDS011;51937;48.364;11.378;2022-09-01T12:07:56;0.90;;;0.90;;
65323;SDS011;51937;48.364;11.378;2022-09-01T12:13:02;1.17;;;1.08;;
65323;SDS011;51937;48.364;11.378;2022-09-01T12:15:41;1.13;;;1.02;;
65323;SDS011;51937;48.364;11.378;2022-09-01T12:18:08;1.85;;;1.00;;
65323;SDS011;51937;48.364;11.378;2022-09-01T12:20:43;0.88;;;0.73;;
65323;SDS011;51937;48.364;11.378;2022-09-01T12:23:18;1.50;;;0.85;;
65323;SDS011;51937;48.364;11.378;2022-09-01T12:25:49;1.98;;;1.00;;
65323;SDS011;51937;48.364;11.378;2022-09-01T12:28:16;1.52;;;1.00;;
65323;SDS011;51937;48.364;11.378;2022-09-01T12:30:41;1.10;;;0.98;;
65323;SDS011;51937;48.364;11.378;2022-09-01T12:33:09;1.17;;;1.00;;
65323;SDS011;51937;48.364;11.378;2022-09-01T12:35:37;0.90;;;0.90;;
65323;SDS011;51937;48.364;11.378;2022-09-01T12:41:01;1.52;;;1.17;;
65323;SDS011;51937;48.364;11.378;2022-09-01T12:43:27;1.55;;;1.00;;
65323;SDS011;51937;48.364;11.378;2022-09-01T12:45:53;0.80;;;0.73;;
65323;SDS011;51937;48.364;11.378;2022-09-01T12:48:22;1.50;;;1.13;;
65323;SDS011;51937;48.364;11.378;2022-09-01T12:50:54;4.43;;;1.02;;
65323;SDS011;51937;48.364;11.378;2022-09-01T12:53:20;1.70;;;0.90;;
65323;SDS011;51937;48.364;11.378;2022-09-01T12:55:55;1.27;;;1.15;;
65323;SDS011;51937;48.364;11.378;2022-09-01T12:58:46;1.20;;;1.08;;
65323;SDS011;51937;48.364;11.378;2022-09-01T13:01:27;2.53;;;0.93;;
65323;SDS011;51937;48.364;11.378;2022-09-01T13:06:35;4.13;;;1.10;;
65323;SDS011;51937;48.364;11.378;2022-09-01T13:09:01;2.42;;;0.90;;
65323;SDS011;51937;48.364;11.378;2022-09-01T13:11:26;1.40;;;0.98;;
65323;SDS011;51937;48.364;11.378;2022-09-01T13:13:52;0.95;;;0.95;;
65323;SDS011;51937;48.364;11.378;2022-09-01T13:16:17;1.67;;;1.00;;
65323;SDS011;51937;48.364;11.378;2022-09-01T13:18:42;2.75;;;1.05;;
65323;SDS011;51937;48.364;11.378;2022-09-01T13:21:08;1.48;;;0.70;;
65323;SDS011;51937;48.364;11.378;2022-09-01T13:23:36;1.02;;;0.90;;
65323;SDS011;51937;48.364;11.378;2022-09-01T13:26:01;2.20;;;1.10;;
65323;SDS011;51937;48.364;11.378;2022-09-01T13:28:27;1.13;;;1.00;;
65323;SDS011;51937;48.364;11.378;2022-09-01T13:30:56;1.50;;;0.90;;
65323;SDS011;51937;48.364;11.378;2022-09-01T13:33:24;2.50;;;1.52;;
65323;SDS011;51937;48.364;11.378;2022-09-01T13:35:51;1.08;;;0.98;;
65323;SDS011;51937;48.364;11.378;2022-09-01T13:38:17;1.00;;;0.90;;
65323;SDS011;51937;48.364;11.378;2022-09-01T13:40:43;0.93;;;0.82;;
65323;SDS011;51937;48.364;11.378;2022-09-01T13:43:10;0.88;;;0.75;;
65323;SDS011;51937;48.364;11.378;2022-09-01T13:45:37;0.88;;;0.88;;
65323;SDS011;51937;48.364;11.378;2022-09-01T13:48:04;1.35;;;0.90;;
65323;SDS011;51937;48.364;11.378;2022-09-01T13:50:30;0.70;;;0.70;;
65323;SDS011;51937;48.364;11.378;2022-09-01T13:52:56;1.25;;;0.80;;
65323;SDS011;51937;48.364;11.378;2022-09-01T13:55:23;1.38;;;0.80;;
65323;SDS011;51937;48.364;11.378;2022-09-01T13:57:53;1.98;;;0.85;;
65323;SDS011;51937;48.364;11.378;2022-09-01T14:00:23;1.33;;;0.90;;
65323;SDS011;51937;48.364;11.378;2022-09-01T14:02:51;1.58;;;0.80;;
65323;SDS011;51937;48.364;11.378;2022-09-01T14:05:20;1.25;;;0.93;;
65323;SDS011;51937;48.364;11.378;2022-09-01T14:07:50;1.48;;;0.80;;
65323;SDS011;51937;48.364;11.378;2022-09-01T14:10:16;3.15;;;1.00;;
65323;SDS011;51937;48.364;11.378;2022-09-01T14:12:42;1.70;;;1.08;;
65323;SDS011;51937;48.364;11.378;2022-09-01T14:15:08;1.25;;;0.90;;
65323;SDS011;51937;48.364;11.378;2022-09-01T14:17:35;0.85;;;0.80;;
65323;SDS011;51937;48.364;11.378;2022-09-01T14:20:02;0.80;;;0.75;;
65323;SDS011;51937;48.364;11.378;2022-09-01T14:22:30;1.08;;;0.80;;
65323;SDS011;51937;48.364;11.378;2022-09-01T14:24:57;1.55;;;0.80;;
65323;SDS011;51937;48.364;11.378;2022-09-01T14:27:23;1.00;;;0.80;;
65323;SDS011;51937;48.364;11.378;2022-09-01T14:29:48;0.60;;;0.60;;
65323;SDS011;51937;48.364;11.378;2022-09-01T14:32:15;0.75;;;0.70;;
65323;SDS011;51937;48.364;11.378;2022-09-01T14:34:41;0.45;;;0.45;;
65323;SDS011;51937;48.364;11.378;2022-09-01T14:37:07;1.10;;;0.90;;
65323;SDS011;51937;48.364;11.378;2022-09-01T14:39:32;0.85;;;0.73;;
65323;SDS011;51937;48.364;11.378;2022-09-01T14:41:58;1.25;;;0.90;;
65323;SDS011;51937;48.364;11.378;2022-09-01T14:44:23;0.80;;;0.80;;
65323;SDS011;51937;48.364;11.378;2022-09-01T14:46:48;0.85;;;0.70;;
65323;SDS011;51937;48.364;11.378;2022-09-01T14:49:14;0.70;;;0.70;;
65323;SDS011;51937;48.364;11.378;2022-09-01T14:51:41;1.27;;;0.70;;
65323;SDS011;51937;48.364;11.378;2022-09-01T14:54:06;0.60;;;0.60;;
65323;SDS011;51937;48.364;11.378;2022-09-01T14:56:31;1.25;;;0.80;;
65323;SDS011;51937;48.364;11.378;2022-09-01T14:58:57;1.60;;;0.80;;
65323;SDS011;51937;48.364;11.378;2022-09-01T15:01:24;1.25;;;0.70;;
65323;SDS011;51937;48.364;11.378;2022-09-01T15:03:51;0.90;;;0.63;;
65323;SDS011;51937;48.364;11.378;2022-09-01T15:06:17;0.50;;;0.50;;
65323;SDS011;51937;48.364;11.378;2022-09-01T15:08:44;0.90;;;0.65;;
65323;SDS011;51937;48.364;11.378;2022-09-01T15:11:11;0.90;;;0.70;;
65323;SDS011;51937;48.364;11.378;2022-09-01T15:13:39;0.55;;;0.55;;
65323;SDS011;51937;48.364;11.378;2022-09-01T15:16:05;1.77;;;0.60;;
65323;SDS011;51937;48.364;11.378;2022-09-01T15:18:38;0.68;;;0.57;;
65323;SDS011;51937;48.364;11.378;2022-09-01T15:21:04;0.65;;;0.60;;
65323;SDS011;51937;48.364;11.378;2022-09-01T15:23:29;0.40;;;0.40;;
65323;SDS011;51937;48.364;11.378;2022-09-01T15:25:55;1.00;;;0.80;;
65323;SDS011;51937;48.364;11.378;2022-09-01T15:28:22;1.00;;;0.70;;
65323;SDS011;51937;48.364;11.378;2022-09-01T15:30:47;2.88;;;0.80;;
65323;SDS011;51937;48.364;11.378;2022-09-01T15:33:14;0.70;;;0.70;;
65323;SDS011;51937;48.364;11.378;2022-09-01T15:35:39;0.82;;;0.77;;
65323;SDS011;51937;48.364;11.378;2022-09-01T15:38:05;0.70;;;0.60;;
65323;SDS011;51937;48.364;11.378;2022-09-01T15:40:31;0.75;;;0.65;;
65323;SDS011;51937;48.364;11.378;2022-09-01T15:42:58;0.80;;;0.80;;
65323;SDS011;51937;48.364;11.378;2022-09-01T15:45:25;1.58;;;0.80;;
65323;SDS011;51937;48.364;11.378;2022-09-01T15:47:52;1.40;;;0.70;;
65323;SDS011;51937;48.364;11.378;2022-09-01T15:50:21;1.10;;;0.80;;